Lincoln Park, Illinois
Current Conditions -  °F | °C
As of 6:53 AM on Saturday 25 Oct 2014 (Local Time) from KMDW Reporting Station
Haze Haze  
Wind Chill: 58°   Ceiling: 900
Heat Index: 58°   Visibility: 3mi
Dew Point: 55°   Wind: 5mph
Humidity: 90%   Direction: 250°WSW
Pressure: 29.91"   Gusts: NA
Location:  41.9225°N, 87.651°W
Report Text: KMDW 251153Z 25004KT 3SM BR OVC009 14/13 A2991 RMK AO2 SLP126 T01440128 10156 20133 50001
Loading
Personal Weather Stations






























Interactive Weather Map
Tropical Storm Tracking
New forecast layout! Learn more

10-Day Weather Forecast

Advertisements
Track Severe Weather on mobile